ROMMA est une association bénévole à but non lucratif. Votre soutien est indispensable : ADHERER à ROMMA ou FAIRE un DON

Briord - (01, Ain)

Bugey (281 m)   Longitude: 05° 29' 13" E   Latitude: 45° 46' 37" N Station partenaire n°15
 

Détail journalier du     <<     >>

Température Precipitation Humidité Pression Vent Dir Rafale Dir. rafale Ensol.
Heure (°C) (mm) (%) (hPa) (km/h) (km/h) (min)
01:00 9.7086102000---0
02:00 8.8086102002ESE0
03:00 8.3087102000---0
04:00 8.6087102003SE0
05:00 8.3088101900---0
06:00 7.2089101900---0
07:00 6.6090102000---0
08:00 8.1090102003SE35
09:00 11.9082102100---50
10:00 15.806310211SE15SE60
11:00 16.706310207SE16SE60
12:00 18.006010205SE16SE60
13:00 19.805710192SE16O60
14:00 20.405410194O18O60
15:00 21.604710195O18O60
16:00 21.904610194SO19NO60
17:00 21.804810193O13ONO60
18:00 20.905110194O16O30
19:00 20.6049101908OSO0
20:00 17.3066102006OSO20
21:00 13.5074102000---0
22:00 12.3076102102S0
23:00 11.5077102203ENE0
minuit 10.7078102205ESE0

Graphique du 18-04-2019

 

Serveur OMMA